sensor_id;sensor_type;location;lat;lon;timestamp;pressure;altitude;pressure_sealevel;temperature;humidity
10145;BME280;5113;41.822;23.564;2023-05-21T00:02:49;-11298.63;;;13.16;100.00
10145;BME280;5113;41.822;23.564;2023-05-21T00:05:56;-11304.81;;;13.39;100.00
10145;BME280;5113;41.822;23.564;2023-05-21T00:09:05;-11304.41;;;13.37;100.00
10145;BME280;5113;41.822;23.564;2023-05-21T00:12:12;-11301.16;;;13.26;100.00
10145;BME280;5113;41.822;23.564;2023-05-21T00:15:18;-11301.59;;;13.27;100.00
10145;BME280;5113;41.822;23.564;2023-05-21T00:18:26;-11299.75;;;13.20;100.00
10145;BME280;5113;41.822;23.564;2023-05-21T00:21:36;-11291.03;;;12.89;100.00
10145;BME280;5113;41.822;23.564;2023-05-21T00:24:43;-11288.78;;;12.81;100.00
10145;BME280;5113;41.822;23.564;2023-05-21T00:27:50;-11289.91;;;12.85;100.00
10145;BME280;5113;41.822;23.564;2023-05-21T00:30:56;-11299.47;;;13.19;100.00
10145;BME280;5113;41.822;23.564;2023-05-21T00:34:04;-11296.66;;;13.09;100.00
10145;BME280;5113;41.822;23.564;2023-05-21T00:37:11;-11298.91;;;13.17;100.00
10145;BME280;5113;41.822;23.564;2023-05-21T00:40:31;-11301.59;;;13.27;100.00
10145;BME280;5113;41.822;23.564;2023-05-21T00:43:38;-11297.50;;;13.12;100.00
10145;BME280;5113;41.822;23.564;2023-05-21T00:46:44;-11303.28;;;13.33;100.00
10145;BME280;5113;41.822;23.564;2023-05-21T00:49:54;-11298.19;;;13.15;100.00
10145;BME280;5113;41.822;23.564;2023-05-21T00:53:00;-11295.53;;;13.05;100.00
10145;BME280;5113;41.822;23.564;2023-05-21T00:56:07;-11296.66;;;13.09;100.00
10145;BME280;5113;41.822;23.564;2023-05-21T00:59:15;-11295.53;;;13.05;100.00
10145;BME280;5113;41.822;23.564;2023-05-21T01:02:21;-11295.53;;;13.05;100.00
10145;BME280;5113;41.822;23.564;2023-05-21T01:05:32;-11290.75;;;12.88;100.00
10145;BME280;5113;41.822;23.564;2023-05-21T01:08:39;-11292.28;;;12.94;100.00
10145;BME280;5113;41.822;23.564;2023-05-21T01:11:47;-11284.69;;;12.66;100.00
10145;BME280;5113;41.822;23.564;2023-05-21T01:14:55;-11286.66;;;12.73;100.00
10145;BME280;5113;41.822;23.564;2023-05-21T01:18:03;-11282.72;;;12.59;100.00
10145;BME280;5113;41.822;23.564;2023-05-21T01:21:11;-11284.00;;;12.64;100.00
10145;BME280;5113;41.822;23.564;2023-05-21T01:24:22;-11282.28;;;12.57;100.00
10145;BME280;5113;41.822;23.564;2023-05-21T01:27:29;-11280.88;;;12.52;100.00
10145;BME280;5113;41.822;23.564;2023-05-21T01:30:36;-11280.88;;;12.52;100.00
10145;BME280;5113;41.822;23.564;2023-05-21T01:33:48;-11279.63;;;12.48;100.00
10145;BME280;5113;41.822;23.564;2023-05-21T01:37:01;-11273.28;;;12.25;100.00
10145;BME280;5113;41.822;23.564;2023-05-21T01:40:16;-11275.13;;;12.32;100.00
10145;BME280;5113;41.822;23.564;2023-05-21T01:43:26;-11272.72;;;12.23;100.00
10145;BME280;5113;41.822;23.564;2023-05-21T01:46:35;-11276.66;;;12.37;100.00
10145;BME280;5113;41.822;23.564;2023-05-21T01:49:42;-11274.41;;;12.29;100.00
10145;BME280;5113;41.822;23.564;2023-05-21T01:52:50;-11273.00;;;12.24;100.00
10145;BME280;5113;41.822;23.564;2023-05-21T01:55:58;-11277.22;;;12.39;100.00
10145;BME280;5113;41.822;23.564;2023-05-21T01:59:04;-11268.78;;;12.09;100.00
10145;BME280;5113;41.822;23.564;2023-05-21T02:02:10;-11274.41;;;12.29;100.00
10145;BME280;5113;41.822;23.564;2023-05-21T02:05:17;-11267.94;;;12.06;100.00
10145;BME280;5113;41.822;23.564;2023-05-21T02:08:23;-11268.78;;;12.09;100.00
10145;BME280;5113;41.822;23.564;2023-05-21T02:11:33;-11264.28;;;11.93;100.00
10145;BME280;5113;41.822;23.564;2023-05-21T02:14:39;-11261.47;;;11.82;100.00
10145;BME280;5113;41.822;23.564;2023-05-21T02:17:46;-11260.75;;;11.80;100.00
10145;BME280;5113;41.822;23.564;2023-05-21T02:20:55;-11269.34;;;12.11;100.00
10145;BME280;5113;41.822;23.564;2023-05-21T02:24:01;-11271.88;;;12.20;100.00
10145;BME280;5113;41.822;23.564;2023-05-21T02:27:09;-11273.44;;;12.26;100.00
10145;BME280;5113;41.822;23.564;2023-05-21T02:30:17;-11271.59;;;12.19;100.00
10145;BME280;5113;41.822;23.564;2023-05-21T02:33:23;-11267.94;;;12.06;100.00
10145;BME280;5113;41.822;23.564;2023-05-21T02:36:30;-11276.38;;;12.36;100.00
10145;BME280;5113;41.822;23.564;2023-05-21T02:39:37;-11274.41;;;12.29;100.00
10145;BME280;5113;41.822;23.564;2023-05-21T02:42:44;-11271.59;;;12.19;100.00
10145;BME280;5113;41.822;23.564;2023-05-21T02:45:51;-11270.75;;;12.16;100.00
10145;BME280;5113;41.822;23.564;2023-05-21T02:48:57;-11270.06;;;12.13;100.00
10145;BME280;5113;41.822;23.564;2023-05-21T02:52:04;-11272.44;;;12.22;100.00
10145;BME280;5113;41.822;23.564;2023-05-21T02:55:10;-11275.25;;;12.32;100.00
10145;BME280;5113;41.822;23.564;2023-05-21T02:58:18;-11264.56;;;11.94;100.00
10145;BME280;5113;41.822;23.564;2023-05-21T03:01:26;-11268.09;;;12.06;100.00
10145;BME280;5113;41.822;23.564;2023-05-21T03:04:33;-11266.81;;;12.02;100.00
10145;BME280;5113;41.822;23.564;2023-05-21T03:07:43;-11272.16;;;12.21;100.00
10145;BME280;5113;41.822;23.564;2023-05-21T03:10:49;-11277.50;;;12.40;100.00
10145;BME280;5113;41.822;23.564;2023-05-21T03:13:56;-11268.50;;;12.08;100.00
10145;BME280;5113;41.822;23.564;2023-05-21T03:17:03;-11273.84;;;12.27;100.00
10145;BME280;5113;41.822;23.564;2023-05-21T03:20:11;-11269.34;;;12.11;100.00
10145;BME280;5113;41.822;23.564;2023-05-21T03:23:21;-11266.13;;;11.99;100.00
10145;BME280;5113;41.822;23.564;2023-05-21T03:26:28;-11268.78;;;12.09;100.00
10145;BME280;5113;41.822;23.564;2023-05-21T03:29:36;-11259.91;;;11.77;100.00
10145;BME280;5113;41.822;23.564;2023-05-21T03:32:43;-11273.84;;;12.27;100.00
10145;BME280;5113;41.822;23.564;2023-05-21T03:35:50;-11283.13;;;12.61;100.00
10145;BME280;5113;41.822;23.564;2023-05-21T03:38:56;-11282.16;;;12.57;100.00
10145;BME280;5113;41.822;23.564;2023-05-21T03:42:02;-11282.72;;;12.59;100.00
10145;BME280;5113;41.822;23.564;2023-05-21T03:45:11;-11283.84;;;12.63;100.00
10145;BME280;5113;41.822;23.564;2023-05-21T03:48:17;-11290.31;;;12.86;100.00
10145;BME280;5113;41.822;23.564;2023-05-21T03:51:24;-11295.81;;;13.06;100.00
10145;BME280;5113;41.822;23.564;2023-05-21T03:54:31;-11300.75;;;13.24;100.00
10145;BME280;5113;41.822;23.564;2023-05-21T03:57:37;-11296.22;;;13.08;100.00
10145;BME280;5113;41.822;23.564;2023-05-21T04:00:45;-11308.06;;;13.50;100.00
10145;BME280;5113;41.822;23.564;2023-05-21T04:03:51;-11305.38;;;13.41;100.00
10145;BME280;5113;41.822;23.564;2023-05-21T04:06:58;-11297.91;;;13.14;100.00
10145;BME280;5113;41.822;23.564;2023-05-21T04:10:05;-11297.06;;;13.11;100.00
10145;BME280;5113;41.822;23.564;2023-05-21T04:13:11;-11291.03;;;12.89;100.00
10145;BME280;5113;41.822;23.564;2023-05-21T04:16:19;-11291.03;;;12.89;100.00
10145;BME280;5113;41.822;23.564;2023-05-21T04:19:26;-11296.66;;;13.09;100.00
10145;BME280;5113;41.822;23.564;2023-05-21T04:22:32;-11307.06;;;13.47;100.00
10145;BME280;5113;41.822;23.564;2023-05-21T04:25:38;-11311.72;;;13.64;100.00
10145;BME280;5113;41.822;23.564;2023-05-21T04:28:45;-11319.19;;;13.91;100.00
10145;BME280;5113;41.822;23.564;2023-05-21T04:31:52;-11318.91;;;13.89;100.00
10145;BME280;5113;41.822;23.564;2023-05-21T04:34:59;-11315.38;;;13.77;100.00
10145;BME280;5113;41.822;23.564;2023-05-21T04:38:06;-11328.06;;;14.23;100.00
10145;BME280;5113;41.822;23.564;2023-05-21T04:41:12;-11321.44;;;13.99;100.00
10145;BME280;5113;41.822;23.564;2023-05-21T04:44:18;-11326.66;;;14.17;100.00
10145;BME280;5113;41.822;23.564;2023-05-21T04:47:26;-11320.31;;;13.95;100.00
10145;BME280;5113;41.822;23.564;2023-05-21T04:50:34;-11319.75;;;13.93;100.00
10145;BME280;5113;41.822;23.564;2023-05-21T04:53:40;-11330.59;;;14.32;100.00
10145;BME280;5113;41.822;23.564;2023-05-21T04:56:46;-11325.94;;;14.15;100.00
10145;BME280;5113;41.822;23.564;2023-05-21T04:59:52;-11323.25;;;14.05;100.00
10145;BME280;5113;41.822;23.564;2023-05-21T05:03:00;-11333.13;;;14.41;100.00
10145;BME280;5113;41.822;23.564;2023-05-21T05:06:07;-11339.47;;;14.64;100.00
10145;BME280;5113;41.822;23.564;2023-05-21T05:09:13;-11340.88;;;14.69;100.00
10145;BME280;5113;41.822;23.564;2023-05-21T05:12:19;-11351.00;;;15.05;100.00
10145;BME280;5113;41.822;23.564;2023-05-21T05:15:25;-11354.09;;;15.16;100.00
10145;BME280;5113;41.822;23.564;2023-05-21T05:18:33;-11355.50;;;15.22;100.00
10145;BME280;5113;41.822;23.564;2023-05-21T05:21:40;-11352.13;;;15.09;100.00
10145;BME280;5113;41.822;23.564;2023-05-21T05:24:46;-11359.87;;;15.37;100.00
10145;BME280;5113;41.822;23.564;2023-05-21T05:27:52;-11357.06;;;15.27;100.00
10145;BME280;5113;41.822;23.564;2023-05-21T05:30:58;-11359.47;;;15.36;100.00
10145;BME280;5113;41.822;23.564;2023-05-21T05:34:06;-11364.09;;;15.52;100.00
10145;BME280;5113;41.822;23.564;2023-05-21T05:37:13;-11376.09;;;15.96;100.00
10145;BME280;5113;41.822;23.564;2023-05-21T05:40:19;-11372.00;;;15.81;100.00
10145;BME280;5113;41.822;23.564;2023-05-21T05:43:26;-11370.59;;;15.76;100.00
10145;BME280;5113;41.822;23.564;2023-05-21T05:46:33;-11367.63;;;15.65;100.00
10145;BME280;5113;41.822;23.564;2023-05-21T05:49:41;-11378.19;;;16.03;97.00
10145;BME280;5113;41.822;23.564;2023-05-21T05:52:47;-11383.13;;;16.21;86.21
10145;BME280;5113;41.822;23.564;2023-05-21T05:55:55;-11391.59;;;16.51;81.64
10145;BME280;5113;41.822;23.564;2023-05-21T05:59:01;-11388.91;;;16.42;81.30
10145;BME280;5113;41.822;23.564;2023-05-21T06:02:07;-11393.28;;;16.58;84.40
10145;BME280;5113;41.822;23.564;2023-05-21T06:05:15;-11390.31;;;16.47;88.70
10145;BME280;5113;41.822;23.564;2023-05-21T06:08:22;-11383.97;;;16.24;87.73
10145;BME280;5113;41.822;23.564;2023-05-21T06:11:28;-11391.59;;;16.51;72.44
10145;BME280;5113;41.822;23.564;2023-05-21T06:14:35;-11393.56;;;16.59;86.51
10145;BME280;5113;41.822;23.564;2023-05-21T06:17:42;-11392.72;;;16.56;89.68
10145;BME280;5113;41.822;23.564;2023-05-21T06:20:49;-11388.75;;;16.41;98.28
10145;BME280;5113;41.822;23.564;2023-05-21T06:23:56;-11395.69;;;16.66;80.77
10145;BME280;5113;41.822;23.564;2023-05-21T06:27:02;-11406.53;;;17.05;74.16
10145;BME280;5113;41.822;23.564;2023-05-21T06:30:09;-11398.22;;;16.75;67.23
10145;BME280;5113;41.822;23.564;2023-05-21T06:33:16;-11395.97;;;16.67;76.53
10145;BME280;5113;41.822;23.564;2023-05-21T06:36:24;-11398.63;;;16.77;75.46
10145;BME280;5113;41.822;23.564;2023-05-21T06:39:33;-11396.81;;;16.70;74.83
10145;BME280;5113;41.822;23.564;2023-05-21T06:42:39;-11400.59;;;16.84;79.57
10145;BME280;5113;41.822;23.564;2023-05-21T06:45:46;-11397.50;;;16.73;79.92
10145;BME280;5113;41.822;23.564;2023-05-21T06:48:52;-11398.91;;;16.78;69.13
10145;BME280;5113;41.822;23.564;2023-05-21T06:52:00;-11402.56;;;16.91;70.45
10145;BME280;5113;41.822;23.564;2023-05-21T06:55:07;-11400.88;;;16.85;66.42
10145;BME280;5113;41.822;23.564;2023-05-21T06:58:14;-11398.34;;;16.76;75.10
10145;BME280;5113;41.822;23.564;2023-05-21T07:01:20;-11406.09;;;17.04;73.39
10145;BME280;5113;41.822;23.564;2023-05-21T07:04:27;-11383.41;;;16.22;85.98
10145;BME280;5113;41.822;23.564;2023-05-21T07:07:35;-11388.47;;;16.40;82.69
10145;BME280;5113;41.822;23.564;2023-05-21T07:10:41;-11384.81;;;16.27;79.82
10145;BME280;5113;41.822;23.564;2023-05-21T07:13:47;-11391.59;;;16.51;76.59
10145;BME280;5113;41.822;23.564;2023-05-21T07:16:54;-11392.28;;;16.54;65.20
10145;BME280;5113;41.822;23.564;2023-05-21T07:20:00;-11380.59;;;16.12;66.40
10145;BME280;5113;41.822;23.564;2023-05-21T07:23:09;-11381.44;;;16.15;70.96
10145;BME280;5113;41.822;23.564;2023-05-21T07:26:15;-11377.63;;;16.01;64.76
10145;BME280;5113;41.822;23.564;2023-05-21T07:29:22;-11375.53;;;15.94;63.94
10145;BME280;5113;41.822;23.564;2023-05-21T07:32:28;-11374.97;;;15.92;61.75
10145;BME280;5113;41.822;23.564;2023-05-21T07:35:35;-11375.94;;;15.95;60.18
10145;BME280;5113;41.822;23.564;2023-05-21T07:38:43;-11380.59;;;16.12;60.91
10145;BME280;5113;41.822;23.564;2023-05-21T07:41:50;-11375.25;;;15.93;63.92
10145;BME280;5113;41.822;23.564;2023-05-21T07:44:56;-11373.56;;;15.87;61.21
10145;BME280;5113;41.822;23.564;2023-05-21T07:48:02;-11368.47;;;15.68;65.59
10145;BME280;5113;41.822;23.564;2023-05-21T07:51:09;-11370.88;;;15.77;65.82
10145;BME280;5113;41.822;23.564;2023-05-21T07:54:17;-11368.75;;;15.69;64.00
10145;BME280;5113;41.822;23.564;2023-05-21T07:57:23;-11368.75;;;15.69;63.78
10145;BME280;5113;41.822;23.564;2023-05-21T08:00:41;-11367.63;;;15.65;64.47
10145;BME280;5113;41.822;23.564;2023-05-21T08:03:48;-11364.09;;;15.52;63.20
10145;BME280;5113;41.822;23.564;2023-05-21T08:06:55;-11363.41;;;15.50;67.36
10145;BME280;5113;41.822;23.564;2023-05-21T08:10:03;-11363.69;;;15.51;67.26
10145;BME280;5113;41.822;23.564;2023-05-21T08:13:10;-11369.88;;;15.73;64.69
10145;BME280;5113;41.822;23.564;2023-05-21T08:16:17;-11373.28;;;15.85;61.76
10145;BME280;5113;41.822;23.564;2023-05-21T08:19:25;-11373.41;;;15.86;63.60
10145;BME280;5113;41.822;23.564;2023-05-21T08:22:31;-11377.22;;;16.00;65.76
10145;BME280;5113;41.822;23.564;2023-05-21T08:25:39;-11373.69;;;15.87;64.05
10145;BME280;5113;41.822;23.564;2023-05-21T08:28:46;-11375.25;;;15.93;65.87
10145;BME280;5113;41.822;23.564;2023-05-21T08:31:52;-11371.84;;;15.80;68.79
10145;BME280;5113;41.822;23.564;2023-05-21T08:34:59;-11369.59;;;15.72;71.03
10145;BME280;5113;41.822;23.564;2023-05-21T08:38:05;-11375.09;;;15.92;67.91
10145;BME280;5113;41.822;23.564;2023-05-21T08:41:13;-11378.91;;;16.06;69.17
10145;BME280;5113;41.822;23.564;2023-05-21T08:44:20;-11384.81;;;16.27;66.95
10145;BME280;5113;41.822;23.564;2023-05-21T08:47:33;-11383.28;;;16.22;66.37
10145;BME280;5113;41.822;23.564;2023-05-21T08:50:40;-11387.34;;;16.36;64.08
10145;BME280;5113;41.822;23.564;2023-05-21T08:53:49;-11389.75;;;16.45;62.87
10145;BME280;5113;41.822;23.564;2023-05-21T08:56:58;-11391.16;;;16.50;62.18
10145;BME280;5113;41.822;23.564;2023-05-21T09:00:07;-11385.66;;;16.30;60.72
10145;BME280;5113;41.822;23.564;2023-05-21T09:03:14;-11380.19;;;16.10;61.10
10145;BME280;5113;41.822;23.564;2023-05-21T09:06:22;-11384.25;;;16.25;59.59
10145;BME280;5113;41.822;23.564;2023-05-21T09:09:32;-11377.50;;;16.01;59.79
10145;BME280;5113;41.822;23.564;2023-05-21T09:12:40;-11374.81;;;15.91;61.48
10145;BME280;5113;41.822;23.564;2023-05-21T09:15:47;-11376.78;;;15.98;59.58
10145;BME280;5113;41.822;23.564;2023-05-21T09:18:55;-11377.34;;;16.00;58.08
10145;BME280;5113;41.822;23.564;2023-05-21T09:22:01;-11375.81;;;15.95;55.23
10145;BME280;5113;41.822;23.564;2023-05-21T09:25:09;-11375.53;;;15.94;58.05
10145;BME280;5113;41.822;23.564;2023-05-21T09:28:18;-11380.03;;;16.10;56.65
10145;BME280;5113;41.822;23.564;2023-05-21T09:31:24;-11377.22;;;16.00;56.03
10145;BME280;5113;41.822;23.564;2023-05-21T09:34:34;-11372.16;;;15.81;61.93
10145;BME280;5113;41.822;23.564;2023-05-21T09:37:41;-11377.50;;;16.01;57.04
10145;BME280;5113;41.822;23.564;2023-05-21T09:40:49;-11383.41;;;16.22;59.00
10145;BME280;5113;41.822;23.564;2023-05-21T09:43:59;-11383.97;;;16.24;63.41
10145;BME280;5113;41.822;23.564;2023-05-21T09:47:07;-11375.81;;;15.95;61.02
10145;BME280;5113;41.822;23.564;2023-05-21T09:50:17;-11370.72;;;15.76;71.45
10145;BME280;5113;41.822;23.564;2023-05-21T09:53:24;-11357.78;;;15.30;89.00
10145;BME280;5113;41.822;23.564;2023-05-21T09:56:30;-11354.53;;;15.18;95.29
10145;BME280;5113;41.822;23.564;2023-05-21T09:59:38;-11337.22;;;14.56;100.00
10145;BME280;5113;41.822;23.564;2023-05-21T10:02:46;-11328.47;;;14.24;100.00
10145;BME280;5113;41.822;23.564;2023-05-21T10:05:54;-11326.50;;;14.17;100.00
10145;BME280;5113;41.822;23.564;2023-05-21T10:09:06;-11326.06;;;14.15;100.00
10145;BME280;5113;41.822;23.564;2023-05-21T10:12:17;-11326.50;;;14.17;100.00
10145;BME280;5113;41.822;23.564;2023-05-21T10:15:29;-11324.66;;;14.10;100.00
10145;BME280;5113;41.822;23.564;2023-05-21T10:18:38;-11326.50;;;14.17;100.00
10145;BME280;5113;41.822;23.564;2023-05-21T10:21:46;-11327.63;;;14.21;100.00
10145;BME280;5113;41.822;23.564;2023-05-21T10:24:55;-11319.75;;;13.93;100.00
10145;BME280;5113;41.822;23.564;2023-05-21T10:28:03;-11327.63;;;14.21;100.00
10145;BME280;5113;41.822;23.564;2023-05-21T10:31:13;-11325.22;;;14.12;100.00
10145;BME280;5113;41.822;23.564;2023-05-21T10:34:20;-11325.66;;;14.14;100.00
10145;BME280;5113;41.822;23.564;2023-05-21T10:37:28;-11330.72;;;14.32;100.00
10145;BME280;5113;41.822;23.564;2023-05-21T10:40:34;-11333.69;;;14.43;100.00
10145;BME280;5113;41.822;23.564;2023-05-21T10:43:51;-11333.41;;;14.42;100.00
10145;BME280;5113;41.822;23.564;2023-05-21T10:51:07;-11320.44;;;13.95;100.00
10145;BME280;5113;41.822;23.564;2023-05-21T10:54:38;-11332.00;;;14.37;100.00
10145;BME280;5113;41.822;23.564;2023-05-21T11:01:36;-11336.94;;;14.54;100.00
10145;BME280;5113;41.822;23.564;2023-05-21T11:04:45;-11348.47;;;14.96;99.51
10145;BME280;5113;41.822;23.564;2023-05-21T11:07:58;-11344.09;;;14.80;100.00
10145;BME280;5113;41.822;23.564;2023-05-21T11:11:05;-11351.84;;;15.08;100.00
10145;BME280;5113;41.822;23.564;2023-05-21T11:14:31;-11350.72;;;15.04;100.00
10145;BME280;5113;41.822;23.564;2023-05-21T11:17:40;-11355.50;;;15.22;90.55
10145;BME280;5113;41.822;23.564;2023-05-21T11:20:50;-11355.78;;;15.23;91.28
10145;BME280;5113;41.822;23.564;2023-05-21T11:24:03;-11352.84;;;15.12;95.54
10145;BME280;5113;41.822;23.564;2023-05-21T11:27:10;-11354.94;;;15.19;98.51
10145;BME280;5113;41.822;23.564;2023-05-21T11:30:17;-11354.66;;;15.18;92.33
10145;BME280;5113;41.822;23.564;2023-05-21T11:33:24;-11356.38;;;15.25;97.56
10145;BME280;5113;41.822;23.564;2023-05-21T11:36:32;-11354.38;;;15.17;97.06
10145;BME280;5113;41.822;23.564;2023-05-21T11:39:39;-11362.00;;;15.45;91.24
10145;BME280;5113;41.822;23.564;2023-05-21T11:42:50;-11362.00;;;15.45;91.66
10145;BME280;5113;41.822;23.564;2023-05-21T11:45:58;-11363.41;;;15.50;87.27
10145;BME280;5113;41.822;23.564;2023-05-21T11:49:04;-11367.34;;;15.64;86.57
10145;BME280;5113;41.822;23.564;2023-05-21T11:52:13;-11367.50;;;15.65;82.77
10145;BME280;5113;41.822;23.564;2023-05-21T11:55:23;-11368.47;;;15.68;87.80
10145;BME280;5113;41.822;23.564;2023-05-21T11:58:30;-11372.84;;;15.84;83.89
10145;BME280;5113;41.822;23.564;2023-05-21T12:01:37;-11376.38;;;15.97;83.19
10145;BME280;5113;41.822;23.564;2023-05-21T12:04:44;-11373.97;;;15.88;88.74
10145;BME280;5113;41.822;23.564;2023-05-21T12:07:52;-11375.25;;;15.93;83.43
10145;BME280;5113;41.822;23.564;2023-05-21T12:11:00;-11373.84;;;15.88;88.77
10145;BME280;5113;41.822;23.564;2023-05-21T12:14:06;-11356.50;;;15.25;100.00
10145;BME280;5113;41.822;23.564;2023-05-21T12:17:15;-11360.59;;;15.40;94.81
10145;BME280;5113;41.822;23.564;2023-05-21T12:20:21;-11368.63;;;15.69;87.28
10145;BME280;5113;41.822;23.564;2023-05-21T12:23:29;-11369.03;;;15.70;90.49
10145;BME280;5113;41.822;23.564;2023-05-21T12:26:35;-11371.00;;;15.77;92.58
10145;BME280;5113;41.822;23.564;2023-05-21T12:29:43;-11380.75;;;16.12;77.98
10145;BME280;5113;41.822;23.564;2023-05-21T12:32:50;-11378.34;;;16.04;77.16
10145;BME280;5113;41.822;23.564;2023-05-21T12:35:57;-11375.53;;;15.94;74.90
10145;BME280;5113;41.822;23.564;2023-05-21T12:39:07;-11372.44;;;15.82;87.72
10145;BME280;5113;41.822;23.564;2023-05-21T12:42:15;-11369.75;;;15.73;81.60
10145;BME280;5113;41.822;23.564;2023-05-21T12:45:21;-11377.78;;;16.02;82.37
10145;BME280;5113;41.822;23.564;2023-05-21T12:48:28;-11357.06;;;15.27;100.00
10145;BME280;5113;41.822;23.564;2023-05-21T12:51:37;-11369.88;;;15.73;92.22
10145;BME280;5113;41.822;23.564;2023-05-21T12:54:48;-11368.34;;;15.68;96.79
10145;BME280;5113;41.822;23.564;2023-05-21T12:58:02;-11371.56;;;15.79;94.86
10145;BME280;5113;41.822;23.564;2023-05-21T13:01:12;-11372.44;;;15.82;91.50
10145;BME280;5113;41.822;23.564;2023-05-21T13:04:19;-11373.56;;;15.87;85.83
10145;BME280;5113;41.822;23.564;2023-05-21T13:07:26;-11373.69;;;15.87;84.58
10145;BME280;5113;41.822;23.564;2023-05-21T13:10:34;-11359.03;;;15.34;100.00
10145;BME280;5113;41.822;23.564;2023-05-21T13:13:41;-11362.28;;;15.46;96.34
10145;BME280;5113;41.822;23.564;2023-05-21T13:16:48;-11366.22;;;15.60;94.42
10145;BME280;5113;41.822;23.564;2023-05-21T13:20:05;-11371.00;;;15.77;96.78
10145;BME280;5113;41.822;23.564;2023-05-21T13:23:13;-11369.31;;;15.71;100.00
10145;BME280;5113;41.822;23.564;2023-05-21T13:26:21;-11370.44;;;15.75;95.91
10145;BME280;5113;41.822;23.564;2023-05-21T13:29:28;-11366.22;;;15.60;100.00
10145;BME280;5113;41.822;23.564;2023-05-21T13:32:35;-11370.03;;;15.74;94.17
10145;BME280;5113;41.822;23.564;2023-05-21T13:35:41;-11372.72;;;15.83;89.40
10145;BME280;5113;41.822;23.564;2023-05-21T13:38:49;-11374.97;;;15.92;85.58
10145;BME280;5113;41.822;23.564;2023-05-21T13:41:57;-11372.72;;;15.83;87.04
10145;BME280;5113;41.822;23.564;2023-05-21T13:45:03;-11359.75;;;15.37;95.80
10145;BME280;5113;41.822;23.564;2023-05-21T13:48:10;-11360.72;;;15.40;95.98
10145;BME280;5113;41.822;23.564;2023-05-21T13:51:17;-11358.91;;;15.34;98.65
10145;BME280;5113;41.822;23.564;2023-05-21T13:54:42;-11357.22;;;15.28;95.28
10145;BME280;5113;41.822;23.564;2023-05-21T13:57:50;-11354.38;;;15.17;99.06
10145;BME280;5113;41.822;23.564;2023-05-21T14:00:56;-11360.59;;;15.40;93.54
10145;BME280;5113;41.822;23.564;2023-05-21T14:04:02;-11355.66;;;15.22;100.00
10145;BME280;5113;41.822;23.564;2023-05-21T14:07:09;-11359.19;;;15.35;100.00
10145;BME280;5113;41.822;23.564;2023-05-21T14:10:15;-11352.13;;;15.09;100.00
10145;BME280;5113;41.822;23.564;2023-05-21T14:13:23;-11355.50;;;15.22;100.00
10145;BME280;5113;41.822;23.564;2023-05-21T14:16:29;-11358.91;;;15.34;100.00
10145;BME280;5113;41.822;23.564;2023-05-21T14:19:36;-11356.66;;;15.26;100.00
10145;BME280;5113;41.822;23.564;2023-05-21T14:22:42;-11353.97;;;15.16;100.00
10145;BME280;5113;41.822;23.564;2023-05-21T14:25:48;-11355.09;;;15.20;100.00
10145;BME280;5113;41.822;23.564;2023-05-21T14:28:56;-11349.03;;;14.98;100.00
10145;BME280;5113;41.822;23.564;2023-05-21T14:32:02;-11350.59;;;15.04;100.00
10145;BME280;5113;41.822;23.564;2023-05-21T14:35:08;-11355.22;;;15.20;100.00
10145;BME280;5113;41.822;23.564;2023-05-21T14:38:15;-11355.22;;;15.20;99.39
10145;BME280;5113;41.822;23.564;2023-05-21T14:41:23;-11347.91;;;14.94;100.00
10145;BME280;5113;41.822;23.564;2023-05-21T14:44:31;-11351.56;;;15.07;100.00
10145;BME280;5113;41.822;23.564;2023-05-21T14:47:38;-11354.81;;;15.19;100.00
10145;BME280;5113;41.822;23.564;2023-05-21T14:50:45;-11351.84;;;15.08;100.00
10145;BME280;5113;41.822;23.564;2023-05-21T14:53:51;-11348.75;;;14.97;100.00
10145;BME280;5113;41.822;23.564;2023-05-21T14:56:58;-11346.22;;;14.88;100.00
10145;BME280;5113;41.822;23.564;2023-05-21T15:00:07;-11340.03;;;14.66;100.00
10145;BME280;5113;41.822;23.564;2023-05-21T15:03:13;-11341.28;;;14.70;100.00
10145;BME280;5113;41.822;23.564;2023-05-21T15:06:22;-11337.22;;;14.56;100.00
10145;BME280;5113;41.822;23.564;2023-05-21T15:09:51;-11329.03;;;14.26;100.00
10145;BME280;5113;41.822;23.564;2023-05-21T15:12:57;-11329.47;;;14.28;100.00
10145;BME280;5113;41.822;23.564;2023-05-21T15:16:05;-11325.50;;;14.13;100.00
10145;BME280;5113;41.822;23.564;2023-05-21T15:19:11;-11320.44;;;13.95;100.00
10145;BME280;5113;41.822;23.564;2023-05-21T15:22:18;-11322.00;;;14.01;100.00
10145;BME280;5113;41.822;23.564;2023-05-21T15:25:24;-11326.22;;;14.16;100.00
10145;BME280;5113;41.822;23.564;2023-05-21T15:28:31;-11326.78;;;14.18;100.00
10145;BME280;5113;41.822;23.564;2023-05-21T15:31:38;-11326.22;;;14.16;100.00
10145;BME280;5113;41.822;23.564;2023-05-21T15:34:45;-11330.59;;;14.32;100.00
10145;BME280;5113;41.822;23.564;2023-05-21T15:37:52;-11321.16;;;13.98;100.00
10145;BME280;5113;41.822;23.564;2023-05-21T15:40:58;-11321.72;;;14.00;100.00
10145;BME280;5113;41.822;23.564;2023-05-21T15:44:04;-11322.56;;;14.03;100.00
10145;BME280;5113;41.822;23.564;2023-05-21T15:47:12;-11313.41;;;13.70;100.00
10145;BME280;5113;41.822;23.564;2023-05-21T15:50:20;-11310.88;;;13.61;100.00
10145;BME280;5113;41.822;23.564;2023-05-21T15:53:26;-11306.78;;;13.46;100.00
10145;BME280;5113;41.822;23.564;2023-05-21T15:56:32;-11313.41;;;13.70;100.00
10145;BME280;5113;41.822;23.564;2023-05-21T15:59:39;-11309.59;;;13.56;100.00
10145;BME280;5113;41.822;23.564;2023-05-21T16:02:47;-11320.31;;;13.95;100.00
10145;BME280;5113;41.822;23.564;2023-05-21T16:05:53;-11317.78;;;13.85;100.00
10145;BME280;5113;41.822;23.564;2023-05-21T16:09:00;-11321.72;;;14.00;100.00
10145;BME280;5113;41.822;23.564;2023-05-21T16:12:06;-11306.78;;;13.46;100.00
10145;BME280;5113;41.822;23.564;2023-05-21T16:15:12;-11308.47;;;13.52;100.00
10145;BME280;5113;41.822;23.564;2023-05-21T16:18:20;-11314.41;;;13.73;100.00
10145;BME280;5113;41.822;23.564;2023-05-21T16:21:30;-11315.09;;;13.76;100.00
10145;BME280;5113;41.822;23.564;2023-05-21T16:24:37;-11309.75;;;13.57;100.00